KAID

Anderson Municipal-Darlington Field Airport

Anderson, Indiana, USA
METAR KAID 182045Z 21010G15KT 10SM CLR M01/M09 A3016
Observed Flight Rules
Jan-18 @ 20:45 UTC (7 hours ago) Visual Flight Rules
Wind Visibility Clouds
210° at 10 knots
 Gusting to 15 knots
10 miles
  • Clear skies
Temperatures Readings
Current -1°C / 30°F
Dewpoint -9°C / 16°F
Humidity 55%
Altimeter 30.16" Hg
Pressure 1021 hPa
Elevation 280
METAR KAID 182045Z 21010G15KT 10SM CLR M01/M09 A3016
Observed Flight Rules
Jan-18 @ 20:45 UTC
(7 hours ago)
VFR
Wind Visibility
210° at 10 knots
 Gusting to 15 knots
10 miles
Clouds
  • Clear skies
Temperature Dewpoint
-1°C / 30°F -9°C / 16°F
Humidity Altimeter Pressure
55% 30.16" Hg 1021 hPa